createdAt,value
2023-01-30T00:00:18.719Z,78.00
2023-01-30T00:02:18.559Z,78.00
2023-01-30T00:04:18.515Z,78.00
2023-01-30T00:06:18.486Z,78.00
2023-01-30T00:08:18.497Z,78.00
2023-01-30T00:10:18.777Z,78.00
2023-01-30T00:12:18.539Z,78.00
2023-01-30T00:14:18.511Z,78.00
2023-01-30T00:16:18.632Z,78.00
2023-01-30T00:18:18.535Z,78.00
2023-01-30T00:20:18.723Z,78.00
2023-01-30T00:22:18.503Z,78.00
2023-01-30T00:24:18.669Z,78.00
2023-01-30T00:26:18.550Z,79.00
2023-01-30T00:28:18.548Z,79.00
2023-01-30T00:30:18.796Z,79.00
2023-01-30T00:32:18.495Z,79.00
2023-01-30T00:34:18.516Z,79.00
2023-01-30T00:36:18.659Z,79.00
2023-01-30T00:38:18.533Z,79.00
2023-01-30T00:40:18.881Z,79.00
2023-01-30T00:42:18.558Z,79.00
2023-01-30T00:44:18.553Z,79.00
2023-01-30T00:46:18.579Z,79.00
2023-01-30T00:48:18.517Z,79.00
2023-01-30T00:50:18.505Z,79.00
2023-01-30T00:52:18.528Z,79.00
2023-01-30T00:54:18.553Z,79.00
2023-01-30T00:56:18.524Z,79.00
2023-01-30T00:58:48.556Z,79.00
2023-01-30T01:00:48.615Z,79.00
2023-01-30T01:02:48.546Z,79.00
2023-01-30T01:04:48.539Z,79.00
2023-01-30T01:06:48.587Z,79.00
2023-01-30T01:08:48.544Z,79.00
2023-01-30T01:10:48.611Z,79.00
2023-01-30T01:12:48.519Z,79.00
2023-01-30T01:14:48.606Z,79.00
2023-01-30T01:16:48.568Z,79.00
2023-01-30T01:18:48.576Z,79.00
2023-01-30T01:20:48.581Z,79.00
2023-01-30T01:22:48.553Z,79.00
2023-01-30T01:24:48.584Z,79.00
2023-01-30T01:26:48.703Z,79.00
2023-01-30T01:28:48.598Z,79.00
2023-01-30T01:30:48.688Z,79.00
2023-01-30T01:32:48.533Z,79.00
2023-01-30T01:34:48.558Z,79.00
2023-01-30T01:36:54.460Z,79.00
2023-01-30T01:38:48.612Z,79.00
2023-01-30T01:40:48.646Z,79.00
2023-01-30T01:42:48.521Z,79.00
2023-01-30T01:44:48.567Z,79.00
2023-01-30T01:46:48.582Z,79.00
2023-01-30T01:48:48.549Z,79.00
2023-01-30T01:50:48.545Z,79.00
2023-01-30T01:52:50.221Z,79.00
2023-01-30T01:54:48.573Z,79.00
2023-01-30T01:56:48.616Z,79.00
2023-01-30T01:58:48.557Z,79.00
2023-01-30T02:00:48.623Z,79.00
2023-01-30T02:02:48.668Z,79.00
2023-01-30T02:04:48.573Z,79.00
2023-01-30T02:06:48.564Z,79.00
2023-01-30T02:08:48.531Z,79.00
2023-01-30T02:10:48.578Z,79.00
2023-01-30T02:12:48.562Z,79.00
2023-01-30T02:14:48.563Z,79.00
2023-01-30T02:16:48.552Z,79.00
2023-01-30T02:18:48.663Z,79.00
2023-01-30T02:20:48.607Z,80.00
2023-01-30T02:22:48.617Z,80.00
2023-01-30T02:24:48.599Z,80.00
2023-01-30T02:26:48.595Z,80.00
2023-01-30T02:28:48.624Z,80.00
2023-01-30T02:30:48.706Z,80.00
2023-01-30T02:32:48.656Z,80.00
2023-01-30T02:34:48.646Z,80.00
2023-01-30T02:36:48.740Z,80.00
2023-01-30T02:38:48.552Z,80.00
2023-01-30T02:41:18.598Z,80.00
2023-01-30T02:43:18.656Z,80.00
2023-01-30T02:45:18.912Z,79.00
2023-01-30T02:47:18.605Z,79.00
2023-01-30T02:51:18.662Z,79.00
2023-01-30T02:56:56.776Z,79.00
2023-01-30T02:58:56.815Z,79.00
2023-01-30T03:00:56.876Z,79.00
2023-01-30T03:02:56.800Z,79.00
2023-01-30T03:04:56.789Z,79.00
2023-01-30T03:07:26.816Z,79.00
2023-01-30T03:09:26.797Z,79.00
2023-01-30T03:11:26.844Z,79.00
2023-01-30T03:13:26.813Z,79.00
2023-01-30T03:15:26.825Z,79.00
2023-01-30T03:17:26.902Z,79.00
2023-01-30T03:19:26.815Z,79.00
2023-01-30T03:21:26.817Z,79.00
2023-01-30T03:23:26.902Z,79.00
2023-01-30T03:25:26.884Z,79.00
2023-01-30T03:27:26.832Z,79.00
2023-01-30T03:29:26.840Z,78.00
2023-01-30T03:31:26.945Z,78.00
2023-01-30T03:33:26.803Z,78.00
2023-01-30T03:35:26.871Z,79.00
2023-01-30T03:37:26.793Z,79.00
2023-01-30T03:39:26.818Z,79.00
2023-01-30T03:41:26.818Z,79.00
2023-01-30T03:43:26.843Z,79.00
2023-01-30T03:45:26.846Z,79.00
2023-01-30T03:47:26.805Z,79.00
2023-01-30T03:49:26.829Z,79.00
2023-01-30T03:51:26.836Z,78.00
2023-01-30T03:53:26.807Z,78.00
2023-01-30T03:55:26.854Z,78.00
2023-01-30T03:57:27.909Z,78.00
2023-01-30T03:59:26.851Z,78.00
2023-01-30T04:01:26.929Z,78.00
2023-01-30T04:03:26.877Z,77.00
2023-01-30T04:05:26.861Z,77.00
2023-01-30T04:07:26.936Z,77.00
2023-01-30T04:09:26.856Z,77.00
2023-01-30T04:11:26.840Z,76.00
2023-01-30T04:13:26.817Z,76.00
2023-01-30T04:15:26.803Z,76.00
2023-01-30T04:17:26.883Z,75.00
2023-01-30T04:19:26.862Z,75.00
2023-01-30T04:21:26.853Z,76.00
2023-01-30T04:23:26.934Z,76.00
2023-01-30T04:25:26.856Z,76.00
2023-01-30T04:27:26.847Z,76.00
2023-01-30T04:29:26.858Z,76.00
2023-01-30T04:31:26.855Z,76.00
2023-01-30T04:33:26.899Z,76.00
2023-01-30T04:35:26.813Z,76.00
2023-01-30T04:37:26.864Z,76.00
2023-01-30T04:39:26.833Z,76.00
2023-01-30T04:41:26.884Z,76.00
2023-01-30T04:43:26.875Z,76.00
2023-01-30T04:45:28.306Z,76.00
2023-01-30T04:47:26.850Z,76.00
2023-01-30T04:49:56.868Z,76.00
2023-01-30T04:51:56.961Z,76.00
2023-01-30T04:53:56.819Z,76.00
2023-01-30T04:55:56.823Z,76.00
2023-01-30T04:57:56.826Z,76.00
2023-01-30T04:59:56.878Z,75.00
2023-01-30T05:01:56.884Z,75.00
2023-01-30T05:03:56.837Z,75.00
2023-01-30T05:05:56.879Z,74.00
2023-01-30T05:07:56.832Z,74.00
2023-01-30T05:09:56.883Z,74.00
2023-01-30T05:11:56.828Z,74.00
2023-01-30T05:13:56.882Z,74.00
2023-01-30T05:15:56.864Z,74.00
2023-01-30T05:17:56.903Z,73.00
2023-01-30T05:19:56.840Z,73.00
2023-01-30T05:21:56.839Z,73.00
2023-01-30T05:23:56.850Z,73.00
2023-01-30T05:25:56.886Z,73.00
2023-01-30T05:27:56.849Z,73.00
2023-01-30T05:29:56.910Z,73.00
2023-01-30T05:31:56.880Z,73.00
2023-01-30T05:33:56.973Z,73.00
2023-01-30T05:35:56.891Z,73.00
2023-01-30T05:37:57.513Z,73.00
2023-01-30T05:39:56.876Z,73.00
2023-01-30T05:41:56.885Z,72.00
2023-01-30T05:43:56.917Z,72.00
2023-01-30T05:45:56.882Z,72.00
2023-01-30T05:48:01.248Z,72.00
2023-01-30T05:49:56.853Z,72.00
2023-01-30T05:51:56.892Z,72.00
2023-01-30T05:53:56.872Z,71.00
2023-01-30T05:55:56.890Z,71.00
2023-01-30T05:57:56.911Z,71.00
2023-01-30T05:59:56.903Z,71.00
2023-01-30T06:01:56.879Z,72.00
2023-01-30T06:03:56.873Z,72.00
2023-01-30T06:05:57.010Z,72.00
2023-01-30T06:07:56.874Z,72.00
2023-01-30T06:09:56.853Z,73.00
2023-01-30T06:11:56.888Z,73.00
2023-01-30T06:13:56.904Z,73.00
2023-01-30T06:15:56.911Z,73.00
2023-01-30T06:17:56.892Z,73.00
2023-01-30T06:19:56.876Z,73.00
2023-01-30T06:21:56.910Z,73.00
2023-01-30T06:23:56.921Z,73.00
2023-01-30T06:25:56.911Z,73.00
2023-01-30T06:27:57.966Z,73.00
2023-01-30T06:29:57.314Z,73.00
2023-01-30T06:32:26.898Z,73.00
2023-01-30T06:34:26.886Z,73.00
2023-01-30T06:38:26.943Z,73.00
2023-01-30T06:40:26.935Z,73.00
2023-01-30T06:42:26.973Z,73.00
2023-01-30T06:44:26.899Z,73.00
2023-01-30T06:46:26.971Z,73.00
2023-01-30T06:48:26.962Z,73.00
2023-01-30T06:50:26.928Z,73.00
2023-01-30T06:52:26.922Z,73.00
2023-01-30T06:54:26.898Z,73.00
2023-01-30T06:56:26.921Z,73.00
2023-01-30T06:58:26.905Z,73.00
2023-01-30T07:00:26.907Z,73.00
2023-01-30T07:02:26.916Z,74.00
2023-01-30T07:04:26.941Z,74.00
2023-01-30T07:06:26.915Z,74.00
2023-01-30T07:08:26.929Z,74.00
2023-01-30T07:10:26.900Z,74.00
2023-01-30T07:12:26.915Z,74.00
2023-01-30T07:14:26.880Z,74.00
2023-01-30T07:16:27.042Z,74.00
2023-01-30T07:18:26.926Z,74.00
2023-01-30T07:20:26.937Z,74.00
2023-01-30T07:22:26.979Z,74.00
2023-01-30T07:24:26.950Z,74.00
2023-01-30T07:26:26.991Z,74.00
2023-01-30T07:28:26.903Z,74.00
2023-01-30T07:30:26.965Z,74.00
2023-01-30T07:32:26.981Z,74.00
2023-01-30T07:34:26.936Z,73.00
2023-01-30T07:36:27.024Z,73.00
2023-01-30T07:38:26.923Z,73.00
2023-01-30T07:40:26.944Z,73.00
2023-01-30T07:42:26.900Z,73.00
2023-01-30T07:44:26.914Z,73.00
2023-01-30T07:46:26.931Z,73.00
2023-01-30T07:48:26.916Z,73.00
2023-01-30T07:50:26.975Z,73.00
2023-01-30T07:52:26.951Z,73.00
2023-01-30T07:54:26.921Z,73.00
2023-01-30T07:56:26.907Z,73.00
2023-01-30T07:58:27.219Z,73.00
2023-01-30T08:00:26.959Z,73.00
2023-01-30T08:02:26.942Z,73.00
2023-01-30T08:04:26.954Z,73.00
2023-01-30T08:06:27.056Z,73.00
2023-01-30T08:08:26.923Z,73.00
2023-01-30T08:10:26.915Z,73.00
2023-01-30T08:12:26.915Z,73.00
2023-01-30T08:14:26.960Z,73.00
2023-01-30T08:16:56.976Z,72.00
2023-01-30T08:18:57.016Z,72.00
2023-01-30T08:20:56.952Z,72.00
2023-01-30T08:22:57.077Z,72.00
2023-01-30T08:24:56.985Z,72.00
2023-01-30T08:26:56.946Z,72.00
2023-01-30T08:28:57.008Z,72.00
2023-01-30T08:30:57.049Z,71.00
2023-01-30T08:32:56.940Z,71.00
2023-01-30T08:34:56.950Z,71.00
2023-01-30T08:36:57.051Z,71.00
2023-01-30T08:38:56.929Z,71.00
2023-01-30T08:40:56.925Z,71.00
2023-01-30T08:42:57.028Z,71.00
2023-01-30T08:44:56.973Z,72.00
2023-01-30T08:46:56.976Z,72.00
2023-01-30T08:48:56.989Z,72.00
2023-01-30T08:50:56.985Z,72.00
2023-01-30T08:52:56.956Z,73.00
2023-01-30T08:54:56.980Z,73.00
2023-01-30T08:56:56.943Z,74.00
2023-01-30T08:58:57.027Z,74.00
2023-01-30T09:00:57.095Z,74.00
2023-01-30T09:02:56.954Z,74.00
2023-01-30T09:04:56.961Z,74.00
2023-01-30T09:06:56.993Z,74.00
2023-01-30T09:08:57.009Z,74.00
2023-01-30T09:10:56.963Z,74.00
2023-01-30T09:12:56.949Z,74.00
2023-01-30T09:14:57.022Z,74.00
2023-01-30T09:16:57.025Z,75.00
2023-01-30T09:18:57.077Z,75.00
2023-01-30T09:20:56.954Z,75.00
2023-01-30T09:22:57.030Z,75.00
2023-01-30T09:24:56.988Z,75.00
2023-01-30T09:26:57.022Z,75.00
2023-01-30T09:28:57.021Z,75.00
2023-01-30T09:30:57.163Z,75.00
2023-01-30T09:32:57.033Z,75.00
2023-01-30T09:34:57.079Z,75.00
2023-01-30T09:38:57.003Z,76.00
2023-01-30T09:40:57.003Z,76.00
2023-01-30T09:44:56.988Z,76.00
2023-01-30T09:48:57.160Z,76.00
2023-01-30T09:50:57.075Z,76.00
2023-01-30T10:05:19.347Z,75.00
2023-01-30T10:07:19.355Z,75.00
2023-01-30T10:09:19.376Z,75.00
2023-01-30T10:11:19.473Z,75.00
2023-01-30T10:13:19.382Z,75.00
2023-01-30T10:15:19.369Z,75.00
2023-01-30T10:17:19.413Z,75.00
2023-01-30T10:19:33.649Z,75.00
2023-01-30T10:21:19.423Z,75.00
2023-01-30T10:23:19.378Z,75.00
2023-01-30T10:25:19.391Z,75.00
2023-01-30T10:27:19.387Z,75.00
2023-01-30T10:29:19.413Z,75.00
2023-01-30T10:31:19.449Z,75.00
2023-01-30T10:33:19.397Z,75.00
2023-01-30T10:35:19.370Z,76.00
2023-01-30T10:37:19.479Z,76.00
2023-01-30T10:39:19.394Z,76.00
2023-01-30T10:41:19.401Z,76.00
2023-01-30T10:43:19.425Z,76.00
2023-01-30T10:45:19.409Z,77.00
2023-01-30T10:47:20.560Z,77.00
2023-01-30T10:49:19.402Z,77.00
2023-01-30T10:51:19.416Z,77.00
2023-01-30T10:53:19.407Z,77.00
2023-01-30T10:55:31.522Z,77.00
2023-01-30T10:57:19.377Z,77.00
2023-01-30T10:59:19.428Z,77.00
2023-01-30T11:01:19.417Z,77.00
2023-01-30T11:03:19.383Z,77.00
2023-01-30T11:05:19.729Z,78.00
2023-01-30T11:07:19.453Z,78.00
2023-01-30T11:09:19.438Z,78.00
2023-01-30T11:11:19.381Z,78.00
2023-01-30T11:13:19.391Z,78.00
2023-01-30T11:15:19.634Z,78.00
2023-01-30T11:17:19.424Z,78.00
2023-01-30T11:19:49.437Z,78.00
2023-01-30T11:21:49.445Z,78.00
2023-01-30T11:23:49.486Z,78.00
2023-01-30T11:25:52.866Z,78.00
2023-01-30T11:27:49.398Z,78.00
2023-01-30T11:29:49.444Z,79.00
2023-01-30T11:31:49.532Z,79.00
2023-01-30T11:33:49.441Z,79.00
2023-01-30T11:35:49.398Z,79.00
2023-01-30T11:37:49.424Z,79.00
2023-01-30T11:39:49.467Z,79.00
2023-01-30T11:41:49.376Z,79.00
2023-01-30T11:43:49.433Z,79.00
2023-01-30T11:45:49.479Z,79.00
2023-01-30T11:47:57.625Z,79.00
2023-01-30T11:50:08.045Z,79.00
2023-01-30T11:51:49.420Z,79.00
2023-01-30T11:53:49.419Z,79.00
2023-01-30T11:56:01.872Z,79.00
2023-01-30T11:57:49.453Z,79.00
2023-01-30T11:59:49.416Z,79.00
2023-01-30T12:01:49.435Z,79.00
2023-01-30T12:03:49.403Z,79.00
2023-01-30T12:05:49.422Z,79.00
2023-01-30T12:07:49.433Z,80.00
2023-01-30T12:09:49.406Z,80.00
2023-01-30T12:11:49.426Z,80.00
2023-01-30T12:13:49.448Z,80.00
2023-01-30T12:15:49.435Z,80.00
2023-01-30T12:17:49.397Z,80.00
2023-01-30T12:19:49.429Z,80.00
2023-01-30T12:21:49.446Z,80.00
2023-01-30T12:23:49.419Z,80.00
2023-01-30T12:25:49.556Z,80.00
2023-01-30T12:27:49.447Z,80.00
2023-01-30T12:29:49.445Z,80.00
2023-01-30T12:31:49.436Z,80.00
2023-01-30T12:33:49.484Z,80.00
2023-01-30T12:35:49.600Z,80.00
2023-01-30T12:37:49.416Z,80.00
2023-01-30T12:39:49.407Z,80.00
2023-01-30T12:41:49.551Z,80.00
2023-01-30T12:43:49.445Z,80.00
2023-01-30T12:45:49.494Z,80.00
2023-01-30T12:47:49.414Z,80.00
2023-01-30T12:49:49.411Z,80.00
2023-01-30T12:51:49.482Z,80.00
2023-01-30T12:53:49.429Z,80.00
2023-01-30T12:55:49.451Z,80.00
2023-01-30T12:57:49.425Z,81.00
2023-01-30T12:59:49.469Z,81.00
2023-01-30T13:01:49.549Z,81.00
2023-01-30T13:03:49.431Z,81.00
2023-01-30T13:06:19.564Z,81.00
2023-01-30T13:08:19.426Z,81.00
2023-01-30T13:10:19.864Z,81.00
2023-01-30T13:12:19.421Z,81.00
2023-01-30T13:14:19.436Z,81.00
2023-01-30T13:16:19.443Z,81.00
2023-01-30T13:18:19.507Z,81.00
2023-01-30T13:20:19.765Z,81.00
2023-01-30T13:22:19.465Z,81.00
2023-01-30T13:24:19.555Z,81.00
2023-01-30T13:26:19.510Z,81.00
2023-01-30T13:28:19.436Z,81.00
2023-01-30T13:30:19.719Z,81.00
2023-01-30T13:32:19.538Z,81.00
2023-01-30T13:34:19.476Z,81.00
2023-01-30T13:36:19.579Z,81.00
2023-01-30T13:38:19.491Z,81.00
2023-01-30T13:40:19.713Z,81.00
2023-01-30T13:42:19.474Z,81.00
2023-01-30T13:44:19.499Z,81.00
2023-01-30T13:46:19.527Z,81.00
2023-01-30T13:48:19.476Z,81.00
2023-01-30T13:50:19.876Z,82.00
2023-01-30T13:52:19.564Z,82.00
2023-01-30T13:54:19.484Z,82.00
2023-01-30T13:56:39.743Z,82.00
2023-01-30T13:58:19.505Z,82.00
2023-01-30T14:00:19.847Z,82.00
2023-01-30T14:02:19.585Z,82.00
2023-01-30T14:04:19.472Z,82.00
2023-01-30T14:06:19.471Z,82.00
2023-01-30T14:08:19.460Z,82.00
2023-01-30T14:10:19.795Z,82.00
2023-01-30T14:12:19.488Z,82.00
2023-01-30T14:14:19.488Z,82.00
2023-01-30T14:16:19.499Z,82.00
2023-01-30T14:18:19.572Z,82.00
2023-01-30T14:20:19.725Z,82.00
2023-01-30T14:22:19.469Z,82.00
2023-01-30T14:24:19.488Z,82.00
2023-01-30T14:26:19.535Z,82.00
2023-01-30T14:28:19.628Z,82.00
2023-01-30T14:30:19.772Z,82.00
2023-01-30T14:32:19.587Z,82.00
2023-01-30T14:34:19.479Z,82.00
2023-01-30T14:36:19.488Z,82.00
2023-01-30T14:38:19.507Z,82.00
2023-01-30T14:40:19.825Z,82.00
2023-01-30T14:42:19.497Z,82.00
2023-01-30T14:44:19.463Z,82.00
2023-01-30T14:46:19.517Z,82.00
2023-01-30T14:48:19.493Z,82.00
2023-01-30T14:50:49.509Z,82.00
2023-01-30T14:52:49.479Z,82.00
2023-01-30T14:54:49.499Z,82.00
2023-01-30T14:56:49.467Z,82.00
2023-01-30T14:58:49.475Z,82.00
2023-01-30T15:00:49.510Z,82.00
2023-01-30T15:02:49.574Z,82.00
2023-01-30T15:04:49.514Z,82.00
2023-01-30T15:06:49.487Z,82.00
2023-01-30T15:08:49.524Z,82.00
2023-01-30T15:10:49.512Z,82.00
2023-01-30T15:12:49.504Z,82.00
2023-01-30T15:14:49.493Z,82.00
2023-01-30T15:16:49.550Z,82.00
2023-01-30T15:18:49.516Z,82.00
2023-01-30T15:20:49.950Z,82.00
2023-01-30T15:22:49.633Z,82.00
2023-01-30T15:24:49.539Z,82.00
2023-01-30T15:26:49.576Z,82.00
2023-01-30T15:28:49.544Z,82.00
2023-01-30T15:30:49.593Z,82.00
2023-01-30T15:32:49.527Z,82.00
2023-01-30T15:34:49.518Z,82.00
2023-01-30T15:36:49.490Z,82.00
2023-01-30T15:38:49.529Z,82.00
2023-01-30T15:40:49.605Z,82.00
2023-01-30T15:42:49.530Z,82.00
2023-01-30T15:44:49.536Z,82.00
2023-01-30T15:46:49.556Z,82.00
2023-01-30T15:48:49.601Z,82.00
2023-01-30T15:50:49.512Z,82.00
2023-01-30T15:52:49.540Z,82.00
2023-01-30T15:54:50.070Z,82.00
2023-01-30T15:56:49.910Z,82.00
2023-01-30T15:58:49.524Z,82.00
2023-01-30T16:00:49.560Z,82.00
2023-01-30T16:02:49.597Z,82.00
2023-01-30T16:04:49.541Z,82.00
2023-01-30T16:06:49.538Z,82.00
2023-01-30T16:08:49.631Z,82.00
2023-01-30T16:10:49.507Z,82.00
2023-01-30T16:12:49.585Z,82.00
2023-01-30T16:14:49.544Z,82.00
2023-01-30T16:16:49.599Z,82.00
2023-01-30T16:18:49.599Z,82.00
2023-01-30T16:21:00.762Z,82.00
2023-01-30T16:22:49.533Z,82.00
2023-01-30T16:24:49.556Z,82.00
2023-01-30T16:26:49.716Z,82.00
2023-01-30T16:28:49.753Z,82.00
2023-01-30T16:30:49.652Z,82.00
2023-01-30T16:32:49.550Z,82.00
2023-01-30T16:34:49.575Z,82.00
2023-01-30T16:37:19.690Z,82.00
2023-01-30T16:39:19.554Z,82.00
2023-01-30T16:41:19.599Z,82.00
2023-01-30T16:43:19.597Z,82.00
2023-01-30T16:45:20.045Z,82.00
2023-01-30T16:47:19.625Z,82.00
2023-01-30T16:49:19.589Z,82.00
2023-01-30T16:51:19.616Z,82.00
2023-01-30T16:53:19.532Z,82.00
2023-01-30T16:55:19.523Z,82.00
2023-01-30T16:57:19.638Z,82.00
2023-01-30T16:59:19.562Z,82.00
2023-01-30T17:01:19.622Z,82.00
2023-01-30T17:03:19.666Z,82.00
2023-01-30T17:05:19.646Z,82.00
2023-01-30T17:07:19.600Z,82.00
2023-01-30T17:11:27.764Z,82.00
2023-01-30T17:13:28.062Z,82.00
2023-01-30T17:15:27.755Z,82.00
2023-01-30T17:17:27.786Z,82.00
2023-01-30T17:19:27.729Z,82.00
2023-01-30T17:21:27.880Z,82.00
2023-01-30T17:23:27.747Z,82.00
2023-01-30T17:25:27.769Z,82.00
2023-01-30T17:27:27.747Z,82.00
2023-01-30T17:29:41.366Z,81.00
2023-01-30T17:31:27.896Z,81.00
2023-01-30T17:33:27.765Z,82.00
2023-01-30T17:35:27.761Z,81.00
2023-01-30T17:37:27.759Z,81.00
2023-01-30T17:39:27.872Z,81.00
2023-01-30T17:41:27.785Z,81.00
2023-01-30T17:43:27.771Z,81.00
2023-01-30T17:45:27.737Z,81.00
2023-01-30T17:47:27.800Z,81.00
2023-01-30T17:49:27.749Z,81.00
2023-01-30T17:51:27.762Z,81.00
2023-01-30T17:53:27.779Z,81.00
2023-01-30T17:55:27.769Z,81.00
2023-01-30T17:57:27.824Z,81.00
2023-01-30T17:59:27.812Z,81.00
2023-01-30T18:01:27.784Z,81.00
2023-01-30T18:03:27.768Z,81.00
2023-01-30T18:05:27.744Z,81.00
2023-01-30T18:07:27.738Z,81.00
2023-01-30T18:09:27.833Z,81.00
2023-01-30T18:11:27.779Z,81.00
2023-01-30T18:13:27.835Z,81.00
2023-01-30T18:15:27.804Z,81.00
2023-01-30T18:17:27.762Z,81.00
2023-01-30T18:19:27.797Z,81.00
2023-01-30T18:21:27.753Z,81.00
2023-01-30T18:23:27.755Z,81.00
2023-01-30T18:25:27.757Z,81.00
2023-01-30T18:27:27.798Z,81.00
2023-01-30T18:29:27.802Z,81.00
2023-01-30T18:31:27.887Z,81.00
2023-01-30T18:33:27.767Z,81.00
2023-01-30T18:35:27.874Z,81.00
2023-01-30T18:37:27.775Z,81.00
2023-01-30T18:39:27.800Z,81.00
2023-01-30T18:41:27.822Z,81.00
2023-01-30T18:43:27.828Z,81.00
2023-01-30T18:45:27.781Z,81.00
2023-01-30T18:47:27.769Z,81.00
2023-01-30T18:49:27.829Z,81.00
2023-01-30T18:51:57.771Z,81.00
2023-01-30T18:53:57.813Z,81.00
2023-01-30T18:55:57.805Z,81.00
2023-01-30T18:57:57.785Z,81.00
2023-01-30T18:59:57.845Z,81.00
2023-01-30T19:01:57.864Z,81.00
2023-01-30T19:03:57.781Z,81.00
2023-01-30T19:05:57.902Z,81.00
2023-01-30T19:07:57.815Z,81.00
2023-01-30T19:09:57.820Z,81.00
2023-01-30T19:11:57.807Z,81.00
2023-01-30T19:13:57.801Z,81.00
2023-01-30T19:15:58.068Z,81.00
2023-01-30T19:17:57.804Z,81.00
2023-01-30T19:19:57.919Z,81.00
2023-01-30T19:21:58.084Z,81.00
2023-01-30T19:23:58.505Z,81.00
2023-01-30T19:25:57.848Z,81.00
2023-01-30T19:27:57.831Z,80.00
2023-01-30T19:29:57.894Z,80.00
2023-01-30T19:31:57.990Z,80.00
2023-01-30T19:33:57.899Z,80.00
2023-01-30T19:35:57.918Z,80.00
2023-01-30T19:37:57.827Z,80.00
2023-01-30T19:39:57.829Z,80.00
2023-01-30T19:41:57.864Z,80.00
2023-01-30T19:43:57.781Z,80.00
2023-01-30T19:45:57.905Z,80.00
2023-01-30T19:47:57.875Z,80.00
2023-01-30T19:49:57.938Z,80.00
2023-01-30T19:51:57.851Z,80.00
2023-01-30T19:53:57.974Z,80.00
2023-01-30T19:55:57.861Z,80.00
2023-01-30T19:57:57.872Z,80.00
2023-01-30T19:59:57.843Z,80.00
2023-01-30T20:01:57.952Z,80.00
2023-01-30T20:03:57.959Z,80.00
2023-01-30T20:05:57.916Z,80.00
2023-01-30T20:07:58.073Z,80.00
2023-01-30T20:09:57.835Z,80.00
2023-01-30T20:11:57.806Z,80.00
2023-01-30T20:13:57.795Z,80.00
2023-01-30T20:15:57.863Z,80.00
2023-01-30T20:17:58.098Z,80.00
2023-01-30T20:19:57.954Z,80.00
2023-01-30T20:21:57.954Z,80.00
2023-01-30T20:24:00.041Z,80.00
2023-01-30T20:25:58.562Z,80.00
2023-01-30T20:27:57.808Z,80.00
2023-01-30T20:29:57.818Z,80.00
2023-01-30T20:31:57.883Z,80.00
2023-01-30T20:33:57.924Z,80.00
2023-01-30T20:35:57.867Z,80.00
2023-01-30T20:38:27.835Z,80.00
2023-01-30T20:40:27.855Z,80.00
2023-01-30T20:42:27.828Z,80.00
2023-01-30T20:44:27.873Z,80.00
2023-01-30T20:46:27.871Z,80.00
2023-01-30T20:48:27.857Z,80.00
2023-01-30T20:50:27.824Z,80.00
2023-01-30T20:52:27.940Z,80.00
2023-01-30T20:54:27.811Z,80.00
2023-01-30T20:56:27.900Z,80.00
2023-01-30T20:58:27.919Z,80.00
2023-01-30T21:00:27.884Z,80.00
2023-01-30T21:02:27.909Z,80.00
2023-01-30T21:04:27.984Z,80.00
2023-01-30T21:06:41.774Z,80.00
2023-01-30T21:08:27.890Z,80.00
2023-01-30T21:10:27.946Z,80.00
2023-01-30T21:12:27.901Z,80.00
2023-01-30T21:14:27.879Z,80.00
2023-01-30T21:16:27.922Z,80.00
2023-01-30T21:18:27.927Z,80.00
2023-01-30T21:20:27.977Z,80.00
2023-01-30T21:22:27.956Z,80.00
2023-01-30T21:24:27.882Z,80.00
2023-01-30T21:26:27.922Z,79.00
2023-01-30T21:28:27.833Z,79.00
2023-01-30T21:30:27.861Z,79.00
2023-01-30T21:32:27.875Z,79.00
2023-01-30T21:34:27.955Z,79.00
2023-01-30T21:36:27.843Z,79.00
2023-01-30T21:38:27.834Z,79.00
2023-01-30T21:40:27.904Z,79.00
2023-01-30T21:42:27.852Z,79.00
2023-01-30T21:44:27.838Z,79.00
2023-01-30T21:46:27.881Z,79.00
2023-01-30T21:48:27.963Z,79.00
2023-01-30T21:50:27.921Z,79.00
2023-01-30T21:52:28.030Z,80.00
2023-01-30T21:54:27.899Z,80.00
2023-01-30T21:56:27.858Z,80.00
2023-01-30T21:58:27.905Z,80.00
2023-01-30T22:00:27.856Z,80.00
2023-01-30T22:02:27.903Z,80.00
2023-01-30T22:04:27.887Z,80.00
2023-01-30T22:06:27.859Z,80.00
2023-01-30T22:08:27.909Z,80.00
2023-01-30T22:10:27.907Z,80.00
2023-01-30T22:12:27.878Z,80.00
2023-01-30T22:14:27.902Z,80.00
2023-01-30T22:16:27.922Z,80.00
2023-01-30T22:18:27.900Z,80.00
2023-01-30T22:20:27.860Z,80.00
2023-01-30T22:22:27.869Z,80.00
2023-01-30T22:24:57.882Z,80.00
2023-01-30T22:26:57.894Z,80.00
2023-01-30T22:28:57.876Z,80.00
2023-01-30T22:30:57.943Z,79.00
2023-01-30T22:32:57.899Z,79.00
2023-01-30T22:34:57.914Z,79.00
2023-01-30T22:36:57.902Z,79.00
2023-01-30T22:38:57.901Z,79.00
2023-01-30T22:40:57.961Z,79.00
2023-01-30T22:42:57.910Z,79.00
2023-01-30T22:44:57.917Z,79.00
2023-01-30T22:46:57.969Z,79.00
2023-01-30T22:48:58.020Z,79.00
2023-01-30T22:50:57.880Z,79.00
2023-01-30T22:52:57.908Z,79.00
2023-01-30T22:54:57.898Z,79.00
2023-01-30T22:56:57.902Z,79.00
2023-01-30T22:58:57.970Z,79.00
2023-01-30T23:00:57.897Z,79.00
2023-01-30T23:02:58.051Z,79.00
2023-01-30T23:04:57.880Z,79.00
2023-01-30T23:06:57.883Z,79.00
2023-01-30T23:08:57.939Z,79.00
2023-01-30T23:10:57.878Z,79.00
2023-01-30T23:12:57.869Z,79.00
2023-01-30T23:14:57.908Z,79.00
2023-01-30T23:16:57.941Z,79.00
2023-01-30T23:18:57.892Z,79.00
2023-01-30T23:20:57.913Z,79.00
2023-01-30T23:22:57.943Z,79.00
2023-01-30T23:24:57.944Z,79.00
2023-01-30T23:26:57.909Z,79.00
2023-01-30T23:28:57.891Z,79.00
2023-01-30T23:30:57.988Z,79.00
2023-01-30T23:32:57.911Z,79.00
2023-01-30T23:34:57.906Z,79.00
2023-01-30T23:36:57.917Z,79.00
2023-01-30T23:38:57.904Z,79.00
2023-01-30T23:40:57.887Z,79.00
2023-01-30T23:42:57.911Z,79.00
2023-01-30T23:44:57.964Z,79.00
2023-01-30T23:46:57.937Z,79.00
2023-01-30T23:48:57.907Z,79.00
2023-01-30T23:50:57.934Z,79.00
2023-01-30T23:52:57.905Z,79.00
2023-01-30T23:54:57.939Z,79.00
2023-01-30T23:56:57.960Z,79.00
2023-01-30T23:58:58.001Z,79.00
